SKCL/CLO METAR and TAF weather

Enter ICAO airport designator
Station Type Date Time Source
SKCL METAR 2022/11/27 09:00 UTC NOAA

SKCL 270900Z VRB02KT 9999 VCSH SCT020 BKN080 21/19 Q1016 TEMPO DZ RMK A3001


Station Type Date Time Source
SKCL Decoded METAR 2022/11/27 09:00 UTC NOAA

Cali / Alfonso Bonillaaragon, Colombia (SKCL) 03-33N 076-23W 969M
Nov 27, 2022 - 04:00 AM EST / 2022.11.27 0900 UTC
Wind: Variable at 2 MPH (2 KT):0
Visibility: greater than 7 mile(s):0
Sky conditions: mostly cloudy
Weather: showers in the vicinity; drizzle
Temperature: 69 F (21 C)
Dew Point: 66 F (19 C)
Relative Humidity: 88%
Pressure (altimeter): 30.00 in. Hg (1016 hPa)
ob: SKCL 270900Z VRB02KT 9999 VCSH SCT020 BKN080 21/19 Q1016 TEMPO DZ RMK A3001
cycle: 9

Station Type Date Time Source
SKCL TAF 2022/11/27 06:55 UTC NOAA

TAF SKCL 270430Z 2706/2806 VRB02KT 9999 SCT020
TEMPO 2707/2710 DZ SCT020 BKN080
TEMPO 2710/2714 4000 BR
TEMPO 2718/2721 SCT020TCU
TEMPO 2721/2801 32012KT DZRA SCT020CB BKN080 TX28/2720Z TN19/2711Z

Example: see airport list